Shun Cheng — BBUL — position and weather

sailwx.info

Track history (hours):
 
Tides and Currents Weather Stations Pressure Air Temp Water Temp Dewpoint Dewpoint Depression Visibility Wind Speed Wind Dir Waves Ship Positions

Shun Cheng

Last reported at 2015-Mar-04 13:07 UTC. Time now 2015-Mar-05 04:08 UTC.
Position N 33°55' E 134°58'.

Length 128 m; draft 6 m.

Type: Cargo ship. MMSI: 412949000.

Date/timePositionNaut miles runAvg speedWind from/ knotsBaromVisibWave heightAir tempDewpointWater temp
2015-Mar-04 13:07N 33°55' E 134°58'813.0
2015-Mar-04 12:28N 34°04' E 134°58'1313.2
2015-Mar-04 11:30N 34°16' E 134°58'1112.0
2015-Mar-04 10:33N 34°26' E 135°05'1312.4
2015-Mar-04 09:33N 34°35' E 135°16'5 4.9
2015-Mar-04 08:33N 34°40' E 135°14'0 0.0
2015-Mar-04 07:30N 34°40' E 135°14'0 0.0
2015-Mar-04 06:30N 34°40' E 135°14'0 0.0
2015-Mar-04 05:30N 34°40' E 135°14'0 0.0
2015-Mar-04 04:30N 34°40' E 135°14'0 0.0
2015-Mar-04 03:24N 34°40' E 135°14'1 0.6
2015-Mar-04 02:33N 34°40' E 135°15'9 9.3
2015-Mar-04 01:33N 34°39' E 135°26'0 0.1
2015-Mar-04 00:23N 34°39' E 135°26'0 0.2
2015-Mar-03 23:33N 34°39' E 135°26'9 8.9
2015-Mar-03 22:33N 34°34' E 135°17'1313.0
2015-Mar-03 21:32N 34°25' E 135°05'1212.4
2015-Mar-03 20:33N 34°14' E 134°59'1211.8
2015-Mar-03 19:33N 34°02' E 134°58'  
2015-Mar-01 12:17N 31°06' E 122°29'911.9
2015-Mar-01 11:33N 31°06' E 122°19'1111.1
2015-Mar-01 10:33N 31°12' E 122°08'1212.4
2015-Mar-01 09:33N 31°16' E 121°55'1313.0
2015-Mar-01 08:33N 31°20' E 121°40'1211.7
2015-Mar-01 07:33N 31°27' E 121°29'1212.0
2015-Mar-01 06:33N 31°35' E 121°18'1313.3
2015-Mar-01 05:33N 31°44' E 121°07'1211.3
2015-Mar-01 04:28N 31°50' E 120°54'9 9.3
2015-Mar-01 03:33N 31°58' E 120°52'0 0.0
2015-Mar-01 02:23N 31°58' E 120°52'0 0.0
2015-Mar-01 01:29N 31°58' E 120°52'0 0.0
2015-Mar-01 00:29N 31°58' E 120°52'0 0.0
2015-Feb-28 23:05N 31°58' E 120°52'0 0.0
2015-Feb-28 22:31N 31°58' E 120°52'0 0.0
2015-Feb-28 21:31N 31°58' E 120°52'0 0.0
2015-Feb-28 20:28N 31°58' E 120°52'0 0.0
2015-Feb-28 19:31N 31°58' E 120°52'0 0.0
2015-Feb-28 18:29N 31°58' E 120°52'0 0.0
2015-Feb-28 17:22N 31°58' E 120°52'0 0.0
2015-Feb-28 16:16N 31°58' E 120°52'0 0.0
2015-Feb-28 15:16N 31°58' E 120°52'0 0.0
2015-Feb-28 14:28N 31°58' E 120°52'0 0.0
2015-Feb-28 13:22N 31°58' E 120°52'1 0.9
2015-Feb-28 12:33N 31°58' E 120°51'10 9.6
2015-Feb-28 11:33N 31°60' E 120°40'1010.1
2015-Feb-28 10:32N 31°60' E 120°27'3 1.3
2015-Feb-28 08:31N 31°58' E 120°25'0 0.0
2015-Feb-28 07:07N 31°58' E 120°25'0 0.0
2015-Feb-28 06:31N 31°58' E 120°25'0 0.0
2015-Feb-28 05:19N 31°58' E 120°25'0 0.0
2015-Feb-28 04:31N 31°58' E 120°25'0 0.0
2015-Feb-28 03:25N 31°58' E 120°25'0 0.0
2015-Feb-28 01:06N 31°58' E 120°25'0 0.0
2015-Feb-28 00:31N 31°58' E 120°25'0 0.0
2015-Feb-27 23:33N 31°58' E 120°25'0 0.0
2015-Feb-27 22:30N 31°58' E 120°25'0 0.0
2015-Feb-27 21:24N 31°58' E 120°25'0 0.0
2015-Feb-27 20:31N 31°58' E 120°25'0 0.0
2015-Feb-27 19:25N 31°58' E 120°25'0 0.0
2015-Feb-27 18:30N 31°58' E 120°25'0 0.0
2015-Feb-27 17:25N 31°58' E 120°25'0 0.0
2015-Feb-27 16:30N 31°58' E 120°25'0 0.0
2015-Feb-27 15:24N 31°58' E 120°25'0 0.0
2015-Feb-27 14:13N 31°58' E 120°25'0 0.0
2015-Feb-27 13:18N 31°58' E 120°25'0 0.0
2015-Feb-27 12:30N 31°58' E 120°25'0 0.0
2015-Feb-27 11:33N 31°58' E 120°25'5 5.1
2015-Feb-27 10:33N 31°57' E 120°19'1312.5
2015-Feb-27 09:33N 31°57' E 120°04'1312.7
2015-Feb-27 08:33N 32°07' E 119°54'1 0.0
2015-Feb-25 19:10N 32°08' E 119°55'610.3
2015-Feb-25 18:33N 32°02' E 119°57'9 9.3
2015-Feb-25 17:34N 31°57' E 120°07'1010.4
2015-Feb-25 16:33N 31°58' E 120°19'1111.2
2015-Feb-25 15:33N 32°04' E 120°30'10 9.9
2015-Feb-25 14:33N 32°00' E 120°40'9 9.3
2015-Feb-25 13:33N 31°58' E 120°51'1212.1
2015-Feb-25 12:33N 31°47' E 120°57'1110.9
2015-Feb-25 11:33N 31°43' E 121°08'1313.4
2015-Feb-25 10:33N 31°33' E 121°20'1211.6
2015-Feb-25 09:33N 31°26' E 121°30'1211.8
2015-Feb-25 08:33N 31°20' E 121°42'1413.8
2015-Feb-25 07:33N 31°10' E 121°53'1212.4
2015-Feb-25 06:34N 31°04' E 122°06'1413.8
2015-Feb-25 05:33N 31°02' E 122°21'46210.2
2015-Feb-23 08:21N 34°03' E 130°46'  
Track history (hours):
 
Tides and Currents Weather Stations Pressure Air Temp Water Temp Dewpoint Dewpoint Depression Visibility Wind Speed Wind Dir Waves Ship Positions

Shun Cheng

Last reported at 2015-Mar-04 13:07 UTC. Time now 2015-Mar-05 04:08 UTC.
Position N 33°55' E 134°58'.

Length 128 m; draft 6 m.

Type: Cargo ship. MMSI: 412949000.

Date/timePositionNaut miles runAvg speedWind from/ knotsBaromVisibWave heightAir tempDewpointWater temp
2015-Mar-04 13:07N 33°55' E 134°58'813.0
2015-Mar-04 12:28N 34°04' E 134°58'1313.2
2015-Mar-04 11:30N 34°16' E 134°58'1112.0
2015-Mar-04 10:33N 34°26' E 135°05'1312.4
2015-Mar-04 09:33N 34°35' E 135°16'5 4.9
2015-Mar-04 08:33N 34°40' E 135°14'0 0.0
2015-Mar-04 07:30N 34°40' E 135°14'0 0.0
2015-Mar-04 06:30N 34°40' E 135°14'0 0.0
2015-Mar-04 05:30N 34°40' E 135°14'0 0.0
2015-Mar-04 04:30N 34°40' E 135°14'0 0.0
2015-Mar-04 03:24N 34°40' E 135°14'1 0.6
2015-Mar-04 02:33N 34°40' E 135°15'9 9.3
2015-Mar-04 01:33N 34°39' E 135°26'0 0.1
2015-Mar-04 00:23N 34°39' E 135°26'0 0.2
2015-Mar-03 23:33N 34°39' E 135°26'9 8.9
2015-Mar-03 22:33N 34°34' E 135°17'1313.0
2015-Mar-03 21:32N 34°25' E 135°05'1212.4
2015-Mar-03 20:33N 34°14' E 134°59'1211.8
2015-Mar-03 19:33N 34°02' E 134°58'  
2015-Mar-01 12:17N 31°06' E 122°29'911.9
2015-Mar-01 11:33N 31°06' E 122°19'1111.1
2015-Mar-01 10:33N 31°12' E 122°08'1212.4
2015-Mar-01 09:33N 31°16' E 121°55'1313.0
2015-Mar-01 08:33N 31°20' E 121°40'1211.7
2015-Mar-01 07:33N 31°27' E 121°29'1212.0
2015-Mar-01 06:33N 31°35' E 121°18'1313.3
2015-Mar-01 05:33N 31°44' E 121°07'1211.3
2015-Mar-01 04:28N 31°50' E 120°54'9 9.3
2015-Mar-01 03:33N 31°58' E 120°52'0 0.0
2015-Mar-01 02:23N 31°58' E 120°52'0 0.0
2015-Mar-01 01:29N 31°58' E 120°52'0 0.0
2015-Mar-01 00:29N 31°58' E 120°52'0 0.0
2015-Feb-28 23:05N 31°58' E 120°52'0 0.0
2015-Feb-28 22:31N 31°58' E 120°52'0 0.0
2015-Feb-28 21:31N 31°58' E 120°52'0 0.0
2015-Feb-28 20:28N 31°58' E 120°52'0 0.0
2015-Feb-28 19:31N 31°58' E 120°52'0 0.0
2015-Feb-28 18:29N 31°58' E 120°52'0 0.0
2015-Feb-28 17:22N 31°58' E 120°52'0 0.0
2015-Feb-28 16:16N 31°58' E 120°52'0 0.0
2015-Feb-28 15:16N 31°58' E 120°52'0 0.0
2015-Feb-28 14:28N 31°58' E 120°52'0 0.0
2015-Feb-28 13:22N 31°58' E 120°52'1 0.9
2015-Feb-28 12:33N 31°58' E 120°51'10 9.6
2015-Feb-28 11:33N 31°60' E 120°40'1010.1
2015-Feb-28 10:32N 31°60' E 120°27'3 1.3
2015-Feb-28 08:31N 31°58' E 120°25'0 0.0
2015-Feb-28 07:07N 31°58' E 120°25'0 0.0
2015-Feb-28 06:31N 31°58' E 120°25'0 0.0
2015-Feb-28 05:19N 31°58' E 120°25'0 0.0
2015-Feb-28 04:31N 31°58' E 120°25'0 0.0
2015-Feb-28 03:25N 31°58' E 120°25'0 0.0
2015-Feb-28 01:06N 31°58' E 120°25'0 0.0
2015-Feb-28 00:31N 31°58' E 120°25'0 0.0
2015-Feb-27 23:33N 31°58' E 120°25'0 0.0
2015-Feb-27 22:30N 31°58' E 120°25'0 0.0
2015-Feb-27 21:24N 31°58' E 120°25'0 0.0
2015-Feb-27 20:31N 31°58' E 120°25'0 0.0
2015-Feb-27 19:25N 31°58' E 120°25'0 0.0
2015-Feb-27 18:30N 31°58' E 120°25'0 0.0
2015-Feb-27 17:25N 31°58' E 120°25'0 0.0
2015-Feb-27 16:30N 31°58' E 120°25'0 0.0
2015-Feb-27 15:24N 31°58' E 120°25'0 0.0
2015-Feb-27 14:13N 31°58' E 120°25'0 0.0
2015-Feb-27 13:18N 31°58' E 120°25'0 0.0
2015-Feb-27 12:30N 31°58' E 120°25'0 0.0
2015-Feb-27 11:33N 31°58' E 120°25'5 5.1
2015-Feb-27 10:33N 31°57' E 120°19'1312.5
2015-Feb-27 09:33N 31°57' E 120°04'1312.7
2015-Feb-27 08:33N 32°07' E 119°54'1 0.0
2015-Feb-25 19:10N 32°08' E 119°55'610.3
2015-Feb-25 18:33N 32°02' E 119°57'9 9.3
2015-Feb-25 17:34N 31°57' E 120°07'1010.4
2015-Feb-25 16:33N 31°58' E 120°19'1111.2
2015-Feb-25 15:33N 32°04' E 120°30'10 9.9
2015-Feb-25 14:33N 32°00' E 120°40'9 9.3
2015-Feb-25 13:33N 31°58' E 120°51'1212.1
2015-Feb-25 12:33N 31°47' E 120°57'1110.9
2015-Feb-25 11:33N 31°43' E 121°08'1313.4
2015-Feb-25 10:33N 31°33' E 121°20'1211.6
2015-Feb-25 09:33N 31°26' E 121°30'1211.8
2015-Feb-25 08:33N 31°20' E 121°42'1413.8
2015-Feb-25 07:33N 31°10' E 121°53'1212.4
2015-Feb-25 06:34N 31°04' E 122°06'1413.8
2015-Feb-25 05:33N 31°02' E 122°21'46210.2
2015-Feb-23 08:21N 34°03' E 130°46'  

Dump ship's entire track history